Time;durP1;ratioP1;P1;durP2;ratioP2;P2;SDS_P1;SDS_P2;PMS_P1;PMS_P2;Temp;Humidity;BMP_temperature;BMP_pressure;BME280_temperature;BME280_humidity;BME280_pressure;Samples;Min_cycle;Max_cycle;Signal;HPM_P1;HPM_P2
2021/08/30 00:00:27;;;;;;;21.30;16.80;;;;;;;16.04;66.35;99696.59;5047049;28;20045;-74
2021/08/30 00:02:54;;;;;;;26.77;20.00;;;;;;;16.05;66.31;99692.94;5047419;28;20045;-73
2021/08/30 00:05:22;;;;;;;26.98;19.95;;;;;;;16.06;66.36;99694.59;5047596;28;20059;-73
2021/08/30 00:07:49;;;;;;;33.53;23.95;;;;;;;16.08;66.32;99700.63;5047814;28;20052;-73
2021/08/30 00:10:16;;;;;;;24.90;19.48;;;;;;;16.08;66.20;99700.63;5047431;28;20060;-74
2021/08/30 00:12:43;;;;;;;23.70;17.35;;;;;;;16.08;66.01;99697.97;5047744;28;20065;-72
2021/08/30 00:15:11;;;;;;;23.30;19.20;;;;;;;16.05;66.00;99703.59;5048063;28;20060;-71
2021/08/30 00:17:38;;;;;;;28.17;19.02;;;;;;;16.06;65.82;99699.94;5048409;28;20056;-73
2021/08/30 00:20:07;;;;;;;27.05;19.20;;;;;;;16.09;65.80;99688.13;5048838;28;20049;-71
2021/08/30 00:22:35;;;;;;;34.75;24.70;;;;;;;16.10;65.84;99693.31;5047905;28;20060;-70
2021/08/30 00:25:02;;;;;;;33.08;23.75;;;;;;;16.11;66.05;99694.97;5046374;28;20471;-70
2021/08/30 00:27:30;;;;;;;34.45;23.08;;;;;;;16.12;66.31;99693.16;5047694;28;20052;-71
2021/08/30 00:29:57;;;;;;;31.67;23.00;;;;;;;16.12;66.07;99696.63;5047852;28;20055;-71
2021/08/30 00:32:24;;;;;;;32.13;22.15;;;;;;;16.18;65.92;99695.16;5049128;28;20235;-72
2021/08/30 00:34:51;;;;;;;28.75;22.63;;;;;;;16.23;65.95;99695.50;5048588;28;20057;-72
2021/08/30 00:37:18;;;;;;;31.25;22.60;;;;;;;16.29;65.85;99689.53;5048883;28;20061;-73
2021/08/30 00:39:47;;;;;;;32.30;22.45;;;;;;;16.32;65.91;99693.72;5048230;28;20056;-71
2021/08/30 00:42:14;;;;;;;30.02;20.85;;;;;;;16.31;66.11;99689.38;5047306;28;20049;-70
2021/08/30 00:44:41;;;;;;;28.00;20.75;;;;;;;16.32;66.07;99693.72;5047931;28;20041;-70
2021/08/30 00:47:08;;;;;;;34.70;24.65;;;;;;;16.26;66.06;99692.53;5049723;28;20053;-72
2021/08/30 00:49:35;;;;;;;32.90;25.25;;;;;;;16.18;66.17;99689.84;5047790;28;20599;-70
2021/08/30 00:52:03;;;;;;;32.17;23.90;;;;;;;16.12;66.34;99693.97;5048062;28;20147;-71
2021/08/30 00:54:30;;;;;;;30.02;23.05;;;;;;;16.11;66.46;99686.97;5046150;28;20049;-71
2021/08/30 00:56:58;;;;;;;30.02;23.17;;;;;;;16.16;66.37;99679.34;5047486;28;20049;-70
2021/08/30 00:59:25;;;;;;;30.55;24.00;;;;;;;16.16;66.45;99671.34;5049741;28;20044;-72
2021/08/30 01:01:53;;;;;;;31.30;23.85;;;;;;;16.12;66.60;99675.31;5047349;28;20055;-72
2021/08/30 01:04:20;;;;;;;35.95;26.08;;;;;;;16.09;66.80;99661.50;5047303;28;20040;-74
2021/08/30 01:06:51;;;;;;;29.40;22.73;;;;;;;16.10;66.70;99665.81;5046566;28;20060;-70
2021/08/30 01:09:27;;;;;;;28.48;19.83;;;;;;;16.10;66.56;99664.00;5047683;28;20055;-70
2021/08/30 01:12:02;;;;;;;26.85;21.83;;;;;;;16.07;66.56;99664.31;5046694;28;20060;-71
2021/08/30 01:14:35;;;;;;;26.95;19.98;;;;;;;16.05;66.53;99667.13;5046694;28;20049;-70
2021/08/30 01:17:04;;;;;;;34.95;21.42;;;;;;;15.98;66.72;99666.13;5047298;28;20049;-71
2021/08/30 01:19:36;;;;;;;28.20;19.15;;;;;;;15.93;66.91;99667.59;5047059;28;20045;-71
2021/08/30 01:22:05;;;;;;;25.63;18.58;;;;;;;15.82;66.85;99661.56;5046775;28;20131;-69
2021/08/30 01:24:33;;;;;;;25.23;17.95;;;;;;;15.72;66.80;99665.28;5044052;28;20049;-72
2021/08/30 01:27:04;;;;;;;24.77;18.85;;;;;;;15.59;67.11;99661.25;5046919;28;20142;-70
2021/08/30 01:29:37;;;;;;;24.23;20.05;;;;;;;15.56;67.15;99666.91;5045307;28;20049;-72
2021/08/30 01:32:11;;;;;;;26.48;19.67;;;;;;;15.55;67.16;99659.88;5046421;28;20045;-72
2021/08/30 01:34:40;;;;;;;26.52;19.75;;;;;;;15.55;67.14;99664.38;5046604;28;20053;-70
2021/08/30 01:37:07;;;;;;;31.98;19.13;;;;;;;15.54;67.22;99662.69;5047287;28;20055;-71
2021/08/30 01:39:36;;;;;;;26.33;20.08;;;;;;;15.55;67.19;99667.88;5046104;28;20045;-70
2021/08/30 01:42:03;;;;;;;29.88;21.45;;;;;;;15.59;67.07;99669.25;5046686;28;20048;-72
2021/08/30 01:44:31;;;;;;;25.17;20.90;;;;;;;15.68;66.90;99665.63;5046168;28;20047;-74
2021/08/30 01:46:59;;;;;;;25.35;20.52;;;;;;;15.75;66.88;99660.53;5046875;28;20079;-71
2021/08/30 01:49:28;;;;;;;28.52;20.60;;;;;;;15.80;66.67;99668.03;5049110;28;20394;-73
2021/08/30 01:51:58;;;;;;;26.52;20.60;;;;;;;15.82;66.59;99666.88;5050258;28;20076;-73
2021/08/30 01:54:26;;;;;;;28.40;21.02;;;;;;;15.83;66.64;99665.88;5044953;28;20056;-70
2021/08/30 01:56:55;;;;;;;28.83;22.35;;;;;;;15.82;66.77;99656.22;5046626;28;20052;-72
2021/08/30 02:02:08;;;;;;;29.45;23.17;;;;;;;15.79;66.95;99647.72;5047150;28;20044;-72
2021/08/30 02:04:35;;;;;;;33.10;26.52;;;;;;;15.78;67.19;99652.22;5046628;28;20052;-72
2021/08/30 02:07:05;;;;;;;32.83;23.08;;;;;;;15.79;67.30;99642.41;5049860;28;20049;-72
2021/08/30 02:09:32;;;;;;;30.83;24.80;;;;;;;15.77;67.30;99647.03;5046833;28;20448;-73
2021/08/30 02:12:00;;;;;;;34.15;24.60;;;;;;;15.77;67.37;99647.03;5047542;28;20055;-72
2021/08/30 02:14:26;;;;;;;30.05;23.00;;;;;;;15.80;67.14;99646.75;5045885;28;20060;-72
2021/08/30 02:16:57;;;;;;;27.23;23.38;;;;;;;15.85;67.22;99645.25;5047191;28;20465;-72
2021/08/30 02:19:31;;;;;;;31.00;23.88;;;;;;;15.89;67.09;99634.28;5046515;28;20079;-72
2021/08/30 02:22:01;;;;;;;34.53;25.73;;;;;;;15.90;67.17;99642.13;5046126;28;20485;-71
2021/08/30 02:24:36;;;;;;;34.55;25.10;;;;;;;15.93;67.23;99635.63;5044134;28;20045;-71
2021/08/30 02:27:08;;;;;;;32.47;23.35;;;;;;;15.98;67.12;99633.31;5047334;28;20052;-73
2021/08/30 02:29:39;;;;;;;34.65;26.23;;;;;;;16.01;67.03;99638.34;5045772;28;20045;-72
2021/08/30 02:32:08;;;;;;;29.33;23.40;;;;;;;16.02;67.08;99640.00;5045861;28;20045;-70
2021/08/30 02:34:38;;;;;;;28.48;24.20;;;;;;;16.11;66.72;99633.69;5046813;28;20045;-72
2021/08/30 02:37:06;;;;;;;34.47;26.30;;;;;;;16.18;66.51;99629.38;5045908;28;20045;-72
2021/08/30 02:39:36;;;;;;;37.15;26.92;;;;;;;16.22;66.43;99625.41;5045871;28;20144;-72
2021/08/30 02:42:05;;;;;;;31.23;24.15;;;;;;;16.30;66.27;99634.41;5046717;28;20053;-72
2021/08/30 02:44:33;;;;;;;29.50;22.67;;;;;;;16.35;66.40;99638.25;5045323;28;20052;-72
2021/08/30 02:47:01;;;;;;;33.53;26.60;;;;;;;16.38;66.04;99637.09;5045741;28;20052;-71
2021/08/30 02:49:28;;;;;;;37.78;29.88;;;;;;;16.40;66.19;99638.59;5046621;28;20045;-72
2021/08/30 02:51:58;;;;;;;36.78;29.88;;;;;;;16.35;66.34;99640.06;5045059;28;20092;-71
2021/08/30 02:54:26;;;;;;;37.30;30.55;;;;;;;16.23;66.74;99632.38;5044282;28;20635;-72
2021/08/30 02:56:55;;;;;;;36.85;31.63;;;;;;;16.16;66.73;99634.03;5045824;28;20123;-71
2021/08/30 02:59:23;;;;;;;39.47;29.25;;;;;;;16.14;67.02;99633.38;5044819;28;20041;-71
2021/08/30 03:01:51;;;;;;;35.20;30.50;;;;;;;16.11;66.84;99631.03;5045935;28;20049;-71
2021/08/30 03:04:18;;;;;;;35.83;28.40;;;;;;;16.13;66.79;99631.69;5044942;28;20103;-71
2021/08/30 03:06:46;;;;;;;37.33;26.23;;;;;;;16.15;66.68;99629.72;5045013;28;20041;-72
2021/08/30 03:09:13;;;;;;;34.67;27.13;;;;;;;16.20;66.56;99622.06;5045968;28;20049;-71
2021/08/30 03:11:40;;;;;;;38.08;29.23;;;;;;;16.25;66.45;99622.41;5044050;28;20056;-72
2021/08/30 03:14:10;;;;;;;34.88;28.67;;;;;;;16.31;66.41;99623.56;5045383;28;20045;-71
2021/08/30 03:16:41;;;;;;;36.50;30.92;;;;;;;16.35;66.13;99629.41;5045428;28;20052;-71
2021/08/30 03:19:11;;;;;;;38.25;32.15;;;;;;;16.38;66.10;99629.09;5045239;28;20068;-70
2021/08/30 03:21:39;;;;;;;35.22;29.92;;;;;;;16.42;66.20;99622.41;5045900;28;20045;-71
2021/08/30 03:24:08;;;;;;;33.78;29.50;;;;;;;16.51;65.90;99629.47;5043359;28;20049;-71
2021/08/30 03:26:36;;;;;;;31.17;23.48;;;;;;;16.62;65.46;99630.97;5048308;28;20061;-71
2021/08/30 03:29:03;;;;;;;33.38;26.33;;;;;;;16.71;65.45;99623.78;5048953;28;20053;-71
2021/08/30 03:31:33;;;;;;;31.80;26.33;;;;;;;16.82;65.06;99626.13;5049023;28;20056;-72
2021/08/30 03:34:01;;;;;;;31.65;26.00;;;;;;;16.90;64.77;99623.47;5049260;28;20122;-71
2021/08/30 03:36:29;;;;;;;32.95;27.00;;;;;;;16.98;64.92;99625.34;5048104;28;20155;-71
2021/08/30 03:38:57;;;;;;;32.88;26.92;;;;;;;17.02;64.79;99626.66;5050101;28;20497;-71
2021/08/30 03:41:26;;;;;;;31.42;27.27;;;;;;;17.05;65.04;99617.47;5048424;28;20056;-72
2021/08/30 03:43:54;;;;;;;39.92;29.13;;;;;;;17.07;64.88;99613.66;5046721;28;20045;-72
2021/08/30 03:46:22;;;;;;;34.45;27.73;;;;;;;17.09;64.90;99619.63;5049354;28;20052;-72
2021/08/30 03:48:51;;;;;;;33.05;28.63;;;;;;;17.12;65.00;99623.78;5048410;28;20053;-72
2021/08/30 03:51:19;;;;;;;34.00;29.35;;;;;;;17.13;64.96;99626.28;5046910;28;20592;-71
2021/08/30 03:53:47;;;;;;;37.50;29.27;;;;;;;17.14;64.78;99627.13;5047065;28;20067;-72
2021/08/30 03:56:14;;;;;;;35.33;30.02;;;;;;;17.14;64.80;99627.13;5047462;28;20053;-73
2021/08/30 03:58:44;;;;;;;33.03;26.35;;;;;;;17.13;64.87;99628.13;5047897;28;20470;-73
2021/08/30 04:01:11;;;;;;;34.80;28.17;;;;;;;17.14;64.86;99635.13;5047479;28;20053;-72
2021/08/30 04:03:40;;;;;;;31.80;26.65;;;;;;;17.17;64.71;99632.94;5047127;28;20102;-72
2021/08/30 04:06:11;;;;;;;29.73;26.30;;;;;;;17.25;64.57;99639.28;5048936;28;20041;-72
2021/08/30 04:08:39;;;;;;;34.60;28.63;;;;;;;17.27;64.45;99635.47;5048740;28;20053;-72
2021/08/30 04:11:09;;;;;;;33.75;27.60;;;;;;;17.28;64.73;99636.28;5047838;28;20103;-72
2021/08/30 04:13:36;;;;;;;33.22;27.45;;;;;;;17.27;64.74;99626.59;5048650;28;20052;-71
2021/08/30 04:16:03;;;;;;;35.83;28.58;;;;;;;17.20;64.70;99626.47;5047853;28;20045;-73
2021/08/30 04:18:30;;;;;;;40.17;30.90;;;;;;;17.09;65.08;99635.66;5047881;28;20516;-72
2021/08/30 04:20:57;;;;;;;38.67;30.00;;;;;;;17.03;65.33;99635.47;5048523;28;20543;-73
2021/08/30 04:23:25;;;;;;;43.40;32.13;;;;;;;16.93;65.57;99633.00;5048804;28;20049;-71
2021/08/30 04:25:52;;;;;;;41.38;33.00;;;;;;;16.87;65.69;99636.31;5044869;28;20045;-72
2021/08/30 04:28:19;;;;;;;46.95;34.95;;;;;;;16.84;65.99;99634.84;5048987;28;20096;-71
2021/08/30 04:30:46;;;;;;;37.65;32.17;;;;;;;16.88;65.83;99646.81;5047416;28;20048;-72
2021/08/30 04:33:14;;;;;;;37.67;28.30;;;;;;;16.94;65.76;99656.84;5046891;28;20045;-72
2021/08/30 04:35:41;;;;;;;37.08;29.58;;;;;;;16.92;65.93;99650.81;5048227;28;20132;-74
2021/08/30 04:38:09;;;;;;;37.72;29.90;;;;;;;16.87;65.92;99647.84;5047290;28;20049;-71
2021/08/30 04:40:38;;;;;;;40.05;30.83;;;;;;;16.89;65.98;99652.97;5047105;28;20385;-71
2021/08/30 04:43:05;;;;;;;43.63;33.70;;;;;;;16.88;65.91;99654.81;5048196;28;20068;-70
2021/08/30 04:45:32;;;;;;;48.28;35.97;;;;;;;16.85;66.29;99654.31;5046100;28;20056;-73
2021/08/30 04:47:59;;;;;;;43.38;34.17;;;;;;;16.82;66.49;99655.47;5045722;28;20041;-72
2021/08/30 04:50:26;;;;;;;45.67;36.65;;;;;;;16.85;66.52;99657.00;5048032;28;20045;-73
2021/08/30 04:52:52;;;;;;;48.22;38.00;;;;;;;16.86;66.63;99654.16;5047315;28;20053;-74
2021/08/30 04:55:21;;;;;;;51.75;38.30;;;;;;;16.87;66.81;99649.66;5047515;28;20052;-78
2021/08/30 04:57:49;;;;;;;43.80;34.67;;;;;;;16.87;66.83;99644.31;5052602;28;20049;-73
2021/08/30 05:00:17;;;;;;;48.28;37.70;;;;;;;16.83;66.90;99643.81;5048638;28;20041;-73
2021/08/30 05:02:44;;;;;;;49.42;38.28;;;;;;;16.78;67.24;99638.13;5048455;28;20040;-77
2021/08/30 05:05:11;;;;;;;48.00;37.95;;;;;;;16.76;67.19;99638.31;5049211;28;20512;-77
2021/08/30 05:07:38;;;;;;;50.25;37.13;;;;;;;16.79;67.30;99634.47;5048473;28;20057;-74
2021/08/30 05:10:06;;;;;;;50.65;40.28;;;;;;;16.80;67.17;99631.63;5048515;28;20047;-79
2021/08/30 05:12:35;;;;;;;53.58;40.50;;;;;;;16.77;67.30;99634.63;5049084;28;20040;-76
2021/08/30 05:15:03;;;;;;;53.47;40.08;;;;;;;16.77;67.57;99642.63;5047224;28;20171;-75
2021/08/30 05:17:30;;;;;;;54.67;40.45;;;;;;;16.80;67.43;99642.31;5049968;28;20063;-72
2021/08/30 05:19:57;;;;;;;51.60;38.72;;;;;;;16.84;67.38;99634.84;5047171;28;20192;-74
2021/08/30 05:22:27;;;;;;;52.72;39.47;;;;;;;16.91;67.21;99637.69;5046886;28;20053;-76
2021/08/30 05:24:54;;;;;;;53.80;38.35;;;;;;;17.03;66.90;99636.31;5048136;28;20061;-75
2021/08/30 05:27:20;;;;;;;51.80;37.28;;;;;;;17.18;66.65;99641.81;5046895;28;20051;-76
2021/08/30 05:29:49;;;;;;;52.33;36.15;;;;;;;17.25;66.43;99648.13;5045837;28;20607;-73
2021/08/30 05:32:17;;;;;;;44.40;33.00;;;;;;;17.23;66.56;99652.78;5045388;28;20473;-72
2021/08/30 05:34:46;;;;;;;47.95;38.25;;;;;;;17.28;66.60;99646.97;5045393;28;20049;-72
2021/08/30 05:37:15;;;;;;;51.63;38.50;;;;;;;17.34;66.56;99640.94;5044781;28;20220;-74
2021/08/30 05:39:42;;;;;;;48.45;42.00;;;;;;;17.32;66.48;99646.47;5046834;28;20537;-75
2021/08/30 05:42:09;;;;;;;49.90;44.25;;;;;;;17.16;66.49;99651.78;5045419;28;20040;-75
2021/08/30 05:44:36;;;;;;;47.65;42.45;;;;;;;17.13;66.63;99655.66;5045623;28;20064;-75
2021/08/30 05:47:03;;;;;;;49.38;42.17;;;;;;;17.12;66.45;99655.81;5045680;28;20049;-74
2021/08/30 05:49:31;;;;;;;49.58;43.47;;;;;;;17.08;66.83;99657.16;5043564;28;20049;-77
2021/08/30 05:51:58;;;;;;;49.53;41.75;;;;;;;17.13;66.57;99647.66;5055591;28;20052;-75
2021/08/30 05:54:25;;;;;;;45.88;40.30;;;;;;;17.07;66.88;99655.47;5053955;28;20045;-76
2021/08/30 05:56:53;;;;;;;46.30;40.65;;;;;;;17.11;66.57;99646.16;5045927;28;20041;-74
2021/08/30 05:59:19;;;;;;;45.33;37.42;;;;;;;17.22;66.30;99648.47;5045690;28;20094;-75
2021/08/30 06:01:46;;;;;;;49.30;41.92;;;;;;;17.23;66.14;99643.97;5045997;28;20052;-75
2021/08/30 06:04:14;;;;;;;45.78;38.80;;;;;;;17.18;66.23;99645.31;5044752;28;20106;-74
2021/08/30 06:06:42;;;;;;;44.75;37.92;;;;;;;17.20;66.21;99640.63;5046317;28;20045;-74
2021/08/30 06:09:09;;;;;;;44.22;38.25;;;;;;;17.23;66.11;99642.13;5049418;28;20056;-75
2021/08/30 06:11:36;;;;;;;44.63;38.13;;;;;;;17.32;65.99;99637.59;5046782;28;20092;-74
2021/08/30 06:14:03;;;;;;;38.97;34.75;;;;;;;17.46;65.74;99630.72;5046047;28;20381;-75
2021/08/30 06:16:30;;;;;;;44.10;35.95;;;;;;;17.69;65.33;99629.00;5044341;28;20644;-73
2021/08/30 06:18:58;;;;;;;39.97;35.17;;;;;;;17.86;64.69;99624.47;5044441;28;20497;-73
2021/08/30 06:21:25;;;;;;;42.05;33.22;;;;;;;17.99;64.32;99625.72;5044454;28;20059;-81
2021/08/30 06:23:53;;;;;;;38.67;33.22;;;;;;;18.15;64.05;99621.13;5044112;28;20049;-76
2021/08/30 06:26:20;;;;;;;39.75;32.83;;;;;;;18.25;63.58;99620.88;5043143;28;20316;-75
2021/08/30 06:28:47;;;;;;;34.58;29.90;;;;;;;18.43;63.52;99620.59;5044215;28;20049;-74
2021/08/30 06:31:14;;;;;;;31.73;28.33;;;;;;;18.64;62.63;99621.81;5042916;28;20718;-78
2021/08/30 06:33:41;;;;;;;32.92;28.98;;;;;;;18.76;62.55;99624.88;5044383;28;20046;-75
2021/08/30 06:36:09;;;;;;;33.20;29.25;;;;;;;18.85;62.05;99616.66;5044370;28;20045;-75
2021/08/30 06:38:36;;;;;;;33.22;28.58;;;;;;;18.90;61.97;99622.28;5044470;28;20147;-73
2021/08/30 06:41:04;;;;;;;33.55;29.27;;;;;;;19.01;62.13;99622.84;5045697;28;20064;-73
2021/08/30 06:43:31;;;;;;;33.75;28.98;;;;;;;19.12;61.71;99613.56;5043918;28;20137;-74
2021/08/30 06:45:58;;;;;;;28.73;25.80;;;;;;;19.24;61.16;99609.41;5045715;28;20212;-75
2021/08/30 06:48:25;;;;;;;41.67;29.80;;;;;;;19.22;60.86;99609.59;5046381;28;20095;-74
2021/08/30 06:50:52;;;;;;;28.60;25.63;;;;;;;19.21;60.77;99615.97;5044576;28;20041;-74
2021/08/30 06:53:19;;;;;;;90.13;44.92;;;;;;;19.28;60.49;99606.22;5047259;28;20065;-73
2021/08/30 06:55:46;;;;;;;28.55;23.88;;;;;;;19.46;59.85;99613.03;5041068;28;20072;-72
2021/08/30 06:58:16;;;;;;;44.88;32.55;;;;;;;19.60;59.36;99611.38;5042973;28;20049;-71
2021/08/30 07:00:43;;;;;;;30.42;24.75;;;;;;;19.62;59.11;99610.16;5043859;28;20049;-70
2021/08/30 07:03:10;;;;;;;27.50;24.13;;;;;;;19.73;59.12;99605.34;5048972;28;20488;-69
2021/08/30 07:05:37;;;;;;;28.67;25.65;;;;;;;19.87;58.80;99599.16;5056834;28;20690;-70
2021/08/30 07:08:05;;;;;;;27.85;25.08;;;;;;;20.10;58.76;99606.25;5048089;28;20144;-70
2021/08/30 07:10:33;;;;;;;30.45;26.95;;;;;;;20.42;58.44;99610.31;5047525;28;20639;-72
2021/08/30 07:13:01;;;;;;;26.30;23.52;;;;;;;20.79;57.46;99606.53;5046332;28;20045;-73
2021/08/30 07:15:30;;;;;;;27.02;24.15;;;;;;;21.05;56.31;99604.25;5047677;28;20057;-71
2021/08/30 07:17:58;;;;;;;24.90;22.38;;;;;;;21.13;55.14;99604.94;5046999;28;20052;-72
2021/08/30 07:20:25;;;;;;;22.70;20.17;;;;;;;21.00;54.39;99602.16;5010061;28;20056;-73
2021/08/30 07:22:52;;;;;;;23.30;20.90;;;;;;;20.86;54.70;99606.59;5046061;28;20045;-71
2021/08/30 07:25:20;;;;;;;21.05;18.83;;;;;;;20.64;54.95;99603.09;5044170;28;20049;-70
2021/08/30 07:27:48;;;;;;;20.08;17.98;;;;;;;20.56;55.58;99605.88;5045074;28;20678;-71
2021/08/30 07:30:16;;;;;;;19.00;17.02;;;;;;;20.77;55.70;99605.91;5044929;28;20080;-71
2021/08/30 07:32:45;;;;;;;17.63;15.80;;;;;;;21.08;55.09;99611.91;5045939;28;20053;-73
2021/08/30 07:35:15;;;;;;;18.33;16.42;;;;;;;21.50;53.82;99608.31;5045475;28;20045;-72
2021/08/30 07:37:42;;;;;;;17.63;15.70;;;;;;;21.64;53.62;99603.00;5045148;28;20099;-71
2021/08/30 07:40:10;;;;;;;15.27;13.70;;;;;;;21.71;53.63;99601.16;5045191;28;20752;-70
2021/08/30 07:42:38;;;;;;;15.32;13.73;;;;;;;21.65;53.39;99602.78;5045569;28;20075;-72
2021/08/30 07:45:17;;;;;;;13.45;12.05;;;;;;;21.57;53.61;99601.09;5045181;28;20109;-69
2021/08/30 07:47:47;;;;;;;15.13;13.25;;;;;;;21.72;52.95;99609.03;5043867;28;20078;-70
2021/08/30 07:50:18;;;;;;;14.50;12.98;;;;;;;21.96;51.97;99602.28;5045511;28;20049;-70
2021/08/30 07:52:45;;;;;;;14.55;13.05;;;;;;;22.03;52.25;99598.81;5045339;28;20606;-74
2021/08/30 07:55:17;;;;;;;15.27;13.70;;;;;;;22.08;52.03;99604.41;5043093;28;20049;-73
2021/08/30 07:57:44;;;;;;;20.88;16.30;;;;;;;22.06;51.37;99598.41;5043622;28;20049;-71
2021/08/30 08:00:13;;;;;;;13.75;11.93;;;;;;;22.10;51.66;99603.16;5043330;28;20056;-70
2021/08/30 08:02:40;;;;;;;13.60;11.75;;;;;;;22.20;50.82;99600.13;5043785;28;20049;-69
2021/08/30 08:05:09;;;;;;;15.50;13.90;;;;;;;21.90;50.97;99600.41;5044786;28;20048;-73
2021/08/30 08:07:36;;;;;;;13.63;12.32;;;;;;;21.73;51.61;99605.31;5043458;28;20120;-70
2021/08/30 08:10:07;;;;;;;14.35;12.95;;;;;;;21.81;51.99;99601.63;5041555;28;20680;-72
2021/08/30 08:12:34;;;;;;;16.10;13.45;;;;;;;21.85;51.49;99602.06;5043175;28;20055;-73
2021/08/30 08:15:01;;;;;;;16.83;14.43;;;;;;;21.95;51.13;99600.66;5040796;28;20461;-72
2021/08/30 08:17:28;;;;;;;13.70;12.30;;;;;;;22.06;51.00;99606.50;5042720;28;20049;-71
2021/08/30 08:19:55;;;;;;;12.15;10.95;;;;;;;22.10;51.06;99602.34;5042920;28;20045;-73
2021/08/30 08:22:23;;;;;;;13.90;12.50;;;;;;;22.23;50.82;99597.00;5047639;28;20045;-72
2021/08/30 08:24:50;;;;;;;14.98;12.52;;;;;;;22.27;50.93;99603.69;5040054;28;20128;-71
2021/08/30 08:27:17;;;;;;;15.25;13.65;;;;;;;22.12;51.49;99598.41;5043610;28;20064;-74
2021/08/30 08:29:45;;;;;;;17.67;13.05;;;;;;;22.14;51.99;99592.84;5044329;28;20049;-73
2021/08/30 08:32:12;;;;;;;16.50;13.85;;;;;;;21.93;52.35;99586.59;5042335;28;20626;-73
2021/08/30 08:34:39;;;;;;;17.75;15.95;;;;;;;21.76;53.11;99587.97;5044147;28;20059;-72
2021/08/30 08:37:06;;;;;;;17.75;15.98;;;;;;;21.48;54.16;99591.56;5043899;28;20056;-72
2021/08/30 08:39:42;;;;;;;15.32;13.63;;;;;;;21.38;54.45;99589.19;5043532;28;20075;-76
2021/08/30 08:42:09;;;;;;;16.48;14.73;;;;;;;21.32;54.62;99600.72;5045748;28;20055;-78
2021/08/30 08:44:36;;;;;;;15.90;14.40;;;;;;;21.26;54.99;99589.94;5043391;28;20599;-74
2021/08/30 08:47:04;;;;;;;15.60;13.63;;;;;;;21.30;54.63;99601.94;5042416;28;20064;-73
2021/08/30 08:49:31;;;;;;;15.43;13.82;;;;;;;21.26;54.95;99589.94;5041887;28;20060;-75
2021/08/30 08:52:00;;;;;;;17.27;15.40;;;;;;;21.05;55.24;99596.19;5040643;28;20504;-74
2021/08/30 08:54:26;;;;;;;14.55;13.15;;;;;;;20.90;56.19;99593.59;5041038;28;20642;-74
2021/08/30 08:56:56;;;;;;;15.95;14.25;;;;;;;20.92;55.90;99584.34;5041610;28;20480;-75
2021/08/30 08:59:23;;;;;;;16.17;14.30;;;;;;;20.87;56.18;99596.69;5042456;28;20068;-73
2021/08/30 09:01:58;;;;;;;16.08;14.43;;;;;;;20.80;56.55;99596.63;5040705;28;20047;-74
2021/08/30 09:04:32;;;;;;;16.08;14.38;;;;;;;20.65;56.77;99595.88;5041182;28;20333;-75
2021/08/30 09:07:09;;;;;;;16.98;15.38;;;;;;;20.56;56.67;99597.81;5042051;28;20055;-73
2021/08/30 09:09:38;;;;;;;15.90;14.40;;;;;;;20.47;56.61;99591.75;5041006;28;20045;-74
2021/08/30 09:12:09;;;;;;;17.50;15.80;;;;;;;20.41;56.95;99595.22;5041219;28;20060;-74
2021/08/30 09:14:36;;;;;;;18.48;16.10;;;;;;;20.39;57.34;99584.69;5041225;28;20135;-75
2021/08/30 09:17:05;;;;;;;16.10;14.48;;;;;;;20.55;56.95;99588.97;5041437;28;20508;-73
2021/08/30 09:19:34;;;;;;;17.45;15.80;;;;;;;20.67;57.15;99592.00;5040939;28;20049;-74
2021/08/30 09:22:03;;;;;;;18.95;17.13;;;;;;;20.58;56.87;99587.72;5040853;28;20051;-74
2021/08/30 09:24:32;;;;;;;17.63;15.93;;;;;;;20.61;56.87;99576.66;5040412;28;20049;-72
2021/08/30 09:27:04;;;;;;;19.55;17.45;;;;;;;20.67;57.26;99575.91;5040823;28;20049;-71
2021/08/30 09:29:35;;;;;;;19.80;17.90;;;;;;;20.56;57.18;99582.59;5041870;28;20044;-75
2021/08/30 09:32:04;;;;;;;22.20;19.67;;;;;;;20.52;57.27;99572.41;5041314;28;20040;-70
2021/08/30 09:34:34;;;;;;;20.02;17.55;;;;;;;20.60;57.00;99574.97;5038575;28;20069;-72
2021/08/30 09:37:01;;;;;;;21.80;19.60;;;;;;;20.67;57.28;99575.03;5040993;28;20083;-71
2021/08/30 09:39:30;;;;;;;23.17;20.92;;;;;;;20.49;57.28;99581.69;5040764;28;20115;-71
2021/08/30 09:41:57;;;;;;;21.55;19.27;;;;;;;20.36;57.78;99577.00;5040378;28;20114;-72
2021/08/30 09:44:26;;;;;;;21.02;19.00;;;;;;;20.22;57.80;99573.38;5040150;28;20049;-72
2021/08/30 09:46:55;;;;;;;20.88;18.77;;;;;;;20.17;57.90;99567.75;5039376;28;20140;-72
2021/08/30 09:49:25;;;;;;;21.10;19.10;;;;;;;20.11;58.29;99565.81;5044001;28;20056;-71
2021/08/30 09:51:52;;;;;;;22.35;20.08;;;;;;;19.89;59.41;99567.66;5040553;28;20053;-72
2021/08/30 09:54:23;;;;;;;26.17;23.63;;;;;;;19.26;61.24;99562.69;5036471;28;20156;-72
2021/08/30 09:56:50;;;;;;;27.08;24.17;;;;;;;18.84;63.55;99557.97;5040708;28;20106;-72
2021/08/30 09:59:18;;;;;;;28.67;25.65;;;;;;;18.60;64.70;99559.81;5039948;28;20052;-71
2021/08/30 10:01:48;;;;;;;32.38;28.98;;;;;;;18.44;65.67;99563.47;5040430;28;20514;-70
2021/08/30 10:04:20;;;;;;;30.33;27.40;;;;;;;18.37;66.30;99562.50;5040478;28;20045;-71
2021/08/30 10:06:49;;;;;;;31.15;27.88;;;;;;;18.31;66.90;99552.50;5039205;28;20132;-72
2021/08/30 10:09:18;;;;;;;34.72;31.23;;;;;;;18.27;67.24;99562.72;5041058;28;20132;-71
2021/08/30 10:11:47;;;;;;;29.48;26.27;;;;;;;18.26;67.05;99555.75;5039700;28;20045;-71
2021/08/30 10:14:18;;;;;;;32.60;28.63;;;;;;;18.31;67.18;99563.22;5041246;28;20051;-73
2021/08/30 10:16:45;;;;;;;32.80;29.35;;;;;;;18.28;67.30;99566.25;5039233;28;20048;-73
2021/08/30 10:19:13;;;;;;;39.67;33.35;;;;;;;18.15;68.16;99574.88;5038520;28;20059;-75
2021/08/30 10:21:48;;;;;;;40.83;36.92;;;;;;;18.03;68.93;99582.44;5037445;28;20080;-72
2021/08/30 10:24:17;;;;;;;40.13;34.87;;;;;;;17.90;68.69;99582.19;5038815;28;20052;-69
2021/08/30 10:26:46;;;;;;;35.70;32.00;;;;;;;17.65;68.56;99582.28;5038438;28;20083;-71
2021/08/30 10:29:13;;;;;;;35.80;31.17;;;;;;;17.45;68.76;99581.00;5037552;28;20055;-72
2021/08/30 10:31:47;;;;;;;38.03;33.92;;;;;;;17.39;69.05;99574.53;5039987;28;20052;-72
2021/08/30 10:34:25;;;;;;;38.70;32.97;;;;;;;17.30;69.34;99575.56;5038125;28;20041;-72
2021/08/30 10:36:55;;;;;;;44.60;35.83;;;;;;;17.29;69.61;99576.56;5038494;28;20045;-70
2021/08/30 10:39:23;;;;;;;42.40;35.65;;;;;;;17.29;69.77;99566.72;5041706;28;20681;-69
2021/08/30 10:41:50;;;;;;;39.10;33.13;;;;;;;17.28;69.81;99572.22;5039976;28;20120;-71
2021/08/30 10:44:19;;;;;;;37.60;33.60;;;;;;;17.30;69.76;99567.53;5043828;28;20409;-69
2021/08/30 10:46:50;;;;;;;37.85;33.17;;;;;;;17.36;70.04;99558.88;5039296;28;20764;-73
2021/08/30 10:49:20;;;;;;;34.95;29.65;;;;;;;17.43;70.04;99559.00;5039213;28;20060;-72
2021/08/30 10:51:48;;;;;;;39.10;27.08;;;;;;;17.49;69.86;99561.81;5038800;28;20045;-70
2021/08/30 10:54:18;;;;;;;31.13;27.90;;;;;;;17.63;69.46;99560.25;5036755;28;20032;-69
2021/08/30 10:56:56;;;;;;;35.58;30.63;;;;;;;17.81;69.09;99561.81;5039257;28;20049;-72
2021/08/30 10:59:25;;;;;;;32.67;27.20;;;;;;;17.86;68.75;99562.16;5039275;28;20282;-71
2021/08/30 11:01:55;;;;;;;28.98;25.30;;;;;;;17.87;68.82;99564.66;5039107;28;20060;-70
2021/08/30 11:04:33;;;;;;;27.50;23.35;;;;;;;17.96;68.76;99565.44;5039877;28;20134;-71
2021/08/30 11:07:01;;;;;;;27.80;24.83;;;;;;;18.02;68.37;99559.41;5042314;28;20049;-73
2021/08/30 11:09:29;;;;;;;28.60;24.63;;;;;;;18.12;68.36;99568.03;5039939;28;20052;-71
2021/08/30 11:12:10;;;;;;;32.58;25.42;;;;;;;18.25;68.13;99563.94;5037631;28;20110;-73
2021/08/30 11:14:37;;;;;;;28.00;23.92;;;;;;;18.26;67.71;99566.44;5036365;28;20501;-69
2021/08/30 11:17:05;;;;;;;29.50;23.10;;;;;;;18.32;67.83;99564.88;5038476;28;20067;-72
2021/08/30 11:19:32;;;;;;;27.00;24.20;;;;;;;18.38;67.91;99569.50;5037638;28;20071;-72
2021/08/30 11:22:01;;;;;;;28.90;24.63;;;;;;;18.46;67.50;99566.78;5039055;28;20049;-69
2021/08/30 11:24:34;;;;;;;29.45;26.35;;;;;;;18.53;67.38;99567.72;5036885;28;20108;-69